sensor_id;sensor_type;location;lat;lon;timestamp;pressure;altitude;pressure_sealevel;temperature;humidity
67430;BME280;54298;52.076;5.264;2023-01-24T00:01:10;103826.0;;;4.57;73.58
67430;BME280;54298;52.076;5.264;2023-01-24T00:04:22;103826.0;;;4.57;73.44
67430;BME280;54298;52.076;5.264;2023-01-24T00:05:59;103826.0;;;4.47;73.44
67430;BME280;54298;52.076;5.264;2023-01-24T00:07:35;103821.0;;;4.28;73.42
67430;BME280;54298;52.076;5.264;2023-01-24T00:10:49;103822.0;;;4.49;72.44
67430;BME280;54298;52.076;5.264;2023-01-24T00:12:32;103825.0;;;4.61;71.63
67430;BME280;54298;52.076;5.264;2023-01-24T00:14:08;103824.0;;;4.58;71.25
67430;BME280;54298;52.076;5.264;2023-01-24T00:17:21;103822.0;;;4.59;70.99
67430;BME280;54298;52.076;5.264;2023-01-24T00:18:58;103815.00000000001;;;4.67;70.91
67430;BME280;54298;52.076;5.264;2023-01-24T00:20:34;103821.0;;;4.71;70.7
67430;BME280;54298;52.076;5.264;2023-01-24T00:22:10;103820.0;;;4.62;71.13
67430;BME280;54298;52.076;5.264;2023-01-24T00:25:25;103813.00000000001;;;4.58;71.12
67430;BME280;54298;52.076;5.264;2023-01-24T00:27:02;103814.00000000001;;;4.67;70.69
67430;BME280;54298;52.076;5.264;2023-01-24T00:28:38;103811.99999999999;;;4.71;70.61
67430;BME280;54298;52.076;5.264;2023-01-24T00:31:52;103809.99999999999;;;4.71;71.11
67430;BME280;54298;52.076;5.264;2023-01-24T00:33:28;103811.99999999999;;;4.67;70.86
67430;BME280;54298;52.076;5.264;2023-01-24T00:35:05;103817.0;;;4.76;70.56
67430;BME280;54298;52.076;5.264;2023-01-24T00:36:43;103818.0;;;4.68;70.86
67430;BME280;54298;52.076;5.264;2023-01-24T00:39:56;103817.0;;;4.67;71.08
67430;BME280;54298;52.076;5.264;2023-01-24T00:41:32;103815.00000000001;;;4.45;71.72
67430;BME280;54298;52.076;5.264;2023-01-24T00:43:08;103814.00000000001;;;4.53;71.86
67430;BME280;54298;52.076;5.264;2023-01-24T00:46:20;103815.00000000001;;;4.37;72.47
67430;BME280;54298;52.076;5.264;2023-01-24T00:47:58;103814.00000000001;;;4.46;72.37
67430;BME280;54298;52.076;5.264;2023-01-24T00:49:34;103813.00000000001;;;4.5;72.16
67430;BME280;54298;52.076;5.264;2023-01-24T00:52:46;103808.99999999999;;;4.45;72.58
67430;BME280;54298;52.076;5.264;2023-01-24T00:54:23;103813.00000000001;;;4.37;72.88
67430;BME280;54298;52.076;5.264;2023-01-24T00:55:59;103807.0;;;4.41;73.11
67430;BME280;54298;52.076;5.264;2023-01-24T00:59:12;103808.99999999999;;;4.29;73.06
67430;BME280;54298;52.076;5.264;2023-01-24T01:00:49;103805.0;;;4.42;73.03
67430;BME280;54298;52.076;5.264;2023-01-24T01:02:25;103808.99999999999;;;4.26;73.8
67430;BME280;54298;52.076;5.264;2023-01-24T01:04:02;103803.0;;;4.24;74.19
67430;BME280;54298;52.076;5.264;2023-01-24T01:07:15;103801.0;;;4.38;73.56
67430;BME280;54298;52.076;5.264;2023-01-24T01:08:52;103801.0;;;4.33;73.61
67430;BME280;54298;52.076;5.264;2023-01-24T01:10:28;103800.0;;;4.34;73.25
67430;BME280;54298;52.076;5.264;2023-01-24T01:13:41;103801.0;;;4.37;73.52
67430;BME280;54298;52.076;5.264;2023-01-24T01:15:18;103802.0;;;4.41;72.94
67430;BME280;54298;52.076;5.264;2023-01-24T01:16:54;103799.0;;;4.53;72.47
67430;BME280;54298;52.076;5.264;2023-01-24T01:20:09;103794.0;;;4.42;72.66
67430;BME280;54298;52.076;5.264;2023-01-24T01:21:45;103797.0;;;4.54;72.47
67430;BME280;54298;52.076;5.264;2023-01-24T01:23:21;103795.0;;;4.51;71.77
67430;BME280;54298;52.076;5.264;2023-01-24T01:24:57;103792.0;;;4.49;71.99
67430;BME280;54298;52.076;5.264;2023-01-24T01:28:10;103788.00000000001;;;4.53;71.49
67430;BME280;54298;52.076;5.264;2023-01-24T01:29:47;103791.00000000001;;;4.5;71.97
67430;BME280;54298;52.076;5.264;2023-01-24T01:31:23;103793.0;;;4.47;72.05
67430;BME280;54298;52.076;5.264;2023-01-24T01:34:35;103795.0;;;4.45;72.05
67430;BME280;54298;52.076;5.264;2023-01-24T01:36:11;103794.0;;;4.53;71.92
67430;BME280;54298;52.076;5.264;2023-01-24T01:37:48;103791.00000000001;;;4.49;72.02
67430;BME280;54298;52.076;5.264;2023-01-24T01:41:00;103789.00000000001;;;4.41;72.2
67430;BME280;54298;52.076;5.264;2023-01-24T01:42:44;103795.0;;;4.45;72.13
67430;BME280;54298;52.076;5.264;2023-01-24T01:44:53;103786.99999999999;;;4.43;71.8
67430;BME280;54298;52.076;5.264;2023-01-24T01:46:33;103783.0;;;4.49;71.36
67430;BME280;54298;52.076;5.264;2023-01-24T01:48:20;103783.99999999999;;;4.41;71.47
67430;BME280;54298;52.076;5.264;2023-01-24T01:50:03;103790.00000000001;;;4.47;71.41
67430;BME280;54298;52.076;5.264;2023-01-24T01:53:24;103786.99999999999;;;4.49;71.41
67430;BME280;54298;52.076;5.264;2023-01-24T01:55:08;103783.99999999999;;;4.49;71.95
67430;BME280;54298;52.076;5.264;2023-01-24T01:56:49;103784.99999999999;;;4.41;72.34
67430;BME280;54298;52.076;5.264;2023-01-24T01:58:30;103781.0;;;4.37;72.24
67430;BME280;54298;52.076;5.264;2023-01-24T02:01:50;103781.0;;;4.42;72.52
67430;BME280;54298;52.076;5.264;2023-01-24T02:03:49;103783.0;;;4.46;72.27
67430;BME280;54298;52.076;5.264;2023-01-24T02:05:29;103788.00000000001;;;4.43;72.12
67430;BME280;54298;52.076;5.264;2023-01-24T02:07:08;103789.00000000001;;;4.38;71.97
67430;BME280;54298;52.076;5.264;2023-01-24T02:08:46;103783.99999999999;;;4.43;71.67
67430;BME280;54298;52.076;5.264;2023-01-24T02:12:07;103782.0;;;4.32;71.87
67430;BME280;54298;52.076;5.264;2023-01-24T02:13:46;103783.0;;;4.28;72.02
67430;BME280;54298;52.076;5.264;2023-01-24T02:16:26;103781.0;;;4.3;72.5
67430;BME280;54298;52.076;5.264;2023-01-24T02:18:05;103783.0;;;4.36;71.95
67430;BME280;54298;52.076;5.264;2023-01-24T02:20:07;103788.00000000001;;;4.41;71.88
67430;BME280;54298;52.076;5.264;2023-01-24T02:21:49;103786.99999999999;;;4.25;71.97
67430;BME280;54298;52.076;5.264;2023-01-24T02:23:37;103781.0;;;4.36;71.69
67430;BME280;54298;52.076;5.264;2023-01-24T02:27:06;103782.0;;;4.36;71.5
67430;BME280;54298;52.076;5.264;2023-01-24T02:28:45;103783.0;;;4.39;71.33
67430;BME280;54298;52.076;5.264;2023-01-24T02:30:25;103783.0;;;4.37;71.25
67430;BME280;54298;52.076;5.264;2023-01-24T02:32:05;103780.0;;;4.37;71.56
67430;BME280;54298;52.076;5.264;2023-01-24T02:35:25;103783.99999999999;;;4.41;71.44
67430;BME280;54298;52.076;5.264;2023-01-24T02:37:07;103783.0;;;4.26;71.86
67430;BME280;54298;52.076;5.264;2023-01-24T02:38:50;103783.0;;;4.45;71.41
67430;BME280;54298;52.076;5.264;2023-01-24T02:40:31;103780.0;;;4.41;71.39
67430;BME280;54298;52.076;5.264;2023-01-24T02:43:49;103778.0;;;4.45;71.28
67430;BME280;54298;52.076;5.264;2023-01-24T02:45:31;103782.0;;;4.43;71.42
67430;BME280;54298;52.076;5.264;2023-01-24T02:47:08;103784.99999999999;;;4.37;71.36
67430;BME280;54298;52.076;5.264;2023-01-24T02:48:45;103786.99999999999;;;4.41;71.33
67430;BME280;54298;52.076;5.264;2023-01-24T02:53:33;103790.00000000001;;;4.34;71.47
67430;BME280;54298;52.076;5.264;2023-01-24T02:55:09;103784.99999999999;;;4.22;72.48
67430;BME280;54298;52.076;5.264;2023-01-24T03:00:22;103780.0;;;4.2;73.13
67430;BME280;54298;52.076;5.264;2023-01-24T03:01:58;103777.0;;;4.21;72.83
67430;BME280;54298;52.076;5.264;2023-01-24T03:03:35;103778.0;;;4.21;72.13
67430;BME280;54298;52.076;5.264;2023-01-24T03:06:48;103776.0;;;4.28;71.98
67430;BME280;54298;52.076;5.264;2023-01-24T03:08:27;103774.0;;;4.24;72.19
67430;BME280;54298;52.076;5.264;2023-01-24T03:10:05;103774.0;;;4.34;71.8
67430;BME280;54298;52.076;5.264;2023-01-24T03:11:41;103775.0;;;4.3;72.16
67430;BME280;54298;52.076;5.264;2023-01-24T03:34:53;103764.00000000001;;;4.32;72.34
67430;BME280;54298;52.076;5.264;2023-01-24T03:36:31;103766.00000000001;;;4.45;71.94
67430;BME280;54298;52.076;5.264;2023-01-24T03:39:58;103759.99999999999;;;4.37;72.08
67430;BME280;54298;52.076;5.264;2023-01-24T03:41:35;103758.0;;;4.46;71.56
67430;BME280;54298;52.076;5.264;2023-01-24T03:43:11;103763.00000000001;;;4.28;72.19
67430;BME280;54298;52.076;5.264;2023-01-24T03:46:23;103766.00000000001;;;4.24;72.72
67430;BME280;54298;52.076;5.264;2023-01-24T03:48:01;103770.0;;;4.25;72.97
67430;BME280;54298;52.076;5.264;2023-01-24T03:53:49;103776.0;;;4.34;72.16
67430;BME280;54298;52.076;5.264;2023-01-24T03:55:26;103777.0;;;4.39;71.99
67430;BME280;54298;52.076;5.264;2023-01-24T03:58:38;103772.0;;;4.38;72.5
67430;BME280;54298;52.076;5.264;2023-01-24T04:00:16;103773.0;;;4.39;72.55
67430;BME280;54298;52.076;5.264;2023-01-24T04:01:52;103775.0;;;4.2;73.19
67430;BME280;54298;52.076;5.264;2023-01-24T04:05:20;103774.0;;;4.2;72.75
67430;BME280;54298;52.076;5.264;2023-01-24T04:06:57;103774.0;;;4.3;72.37
67430;BME280;54298;52.076;5.264;2023-01-24T04:08:33;103775.0;;;4.37;72.2
67430;BME280;54298;52.076;5.264;2023-01-24T04:10:10;103775.0;;;4.41;71.87
67430;BME280;54298;52.076;5.264;2023-01-24T04:13:23;103775.0;;;4.32;72.33
67430;BME280;54298;52.076;5.264;2023-01-24T04:15:00;103782.0;;;4.33;72.22
67430;BME280;54298;52.076;5.264;2023-01-24T04:16:36;103778.0;;;4.24;72.23
67430;BME280;54298;52.076;5.264;2023-01-24T04:19:49;103775.0;;;4.17;72.58
67430;BME280;54298;52.076;5.264;2023-01-24T04:21:25;103779.0;;;4.28;72.08
67430;BME280;54298;52.076;5.264;2023-01-24T04:23:02;103770.0;;;4.08;72.78
67430;BME280;54298;52.076;5.264;2023-01-24T04:26:16;103770.0;;;4.25;72.12
67430;BME280;54298;52.076;5.264;2023-01-24T04:27:52;103776.0;;;4.24;72.17
67430;BME280;54298;52.076;5.264;2023-01-24T04:29:28;103775.0;;;4.28;72.3
67430;BME280;54298;52.076;5.264;2023-01-24T04:31:04;103776.0;;;4.34;72.08
67430;BME280;54298;52.076;5.264;2023-01-24T04:34:18;103779.0;;;4.26;72.3
67430;BME280;54298;52.076;5.264;2023-01-24T04:35:56;103781.0;;;4.3;72.31
67430;BME280;54298;52.076;5.264;2023-01-24T04:37:33;103773.0;;;4.21;72.91
67430;BME280;54298;52.076;5.264;2023-01-24T04:40:46;103777.0;;;4.2;72.92
67430;BME280;54298;52.076;5.264;2023-01-24T04:42:22;103783.0;;;4.17;72.78
67430;BME280;54298;52.076;5.264;2023-01-24T04:43:58;103777.0;;;4.07;73.08
67430;BME280;54298;52.076;5.264;2023-01-24T04:47:11;103778.0;;;4.16;72.47
67430;BME280;54298;52.076;5.264;2023-01-24T04:48:46;103788.00000000001;;;4.16;72.44
67430;BME280;54298;52.076;5.264;2023-01-24T04:50:23;103786.99999999999;;;4.21;72.31
67430;BME280;54298;52.076;5.264;2023-01-24T04:52:00;103788.00000000001;;;4.14;72.69
67430;BME280;54298;52.076;5.264;2023-01-24T04:55:15;103789.00000000001;;;4.04;73.37
67430;BME280;54298;52.076;5.264;2023-01-24T04:56:51;103793.0;;;3.97;73.37
67430;BME280;54298;52.076;5.264;2023-01-24T04:58:28;103792.0;;;4.07;73.44
67430;BME280;54298;52.076;5.264;2023-01-24T05:01:42;103800.0;;;3.99;73.17
67430;BME280;54298;52.076;5.264;2023-01-24T05:03:18;103799.0;;;4.03;72.8
67430;BME280;54298;52.076;5.264;2023-01-24T05:04:54;103802.0;;;4.05;72.55
67430;BME280;54298;52.076;5.264;2023-01-24T05:08:08;103796.0;;;4.07;72.48
67430;BME280;54298;52.076;5.264;2023-01-24T05:09:45;103795.0;;;3.73;73.19
67430;BME280;54298;52.076;5.264;2023-01-24T05:11:23;103796.0;;;3.84;72.91
67430;BME280;54298;52.076;5.264;2023-01-24T05:13:00;103803.0;;;3.89;72.42
67430;BME280;54298;52.076;5.264;2023-01-24T05:16:12;103802.0;;;4.0;72.28
67430;BME280;54298;52.076;5.264;2023-01-24T05:17:49;103800.0;;;3.98;72.58
67430;BME280;54298;52.076;5.264;2023-01-24T05:19:25;103805.0;;;4.0;72.49
67430;BME280;54298;52.076;5.264;2023-01-24T05:22:46;103800.0;;;4.07;72.48
67430;BME280;54298;52.076;5.264;2023-01-24T05:24:23;103799.0;;;4.03;72.55
67430;BME280;54298;52.076;5.264;2023-01-24T05:25:59;103800.0;;;4.05;72.36
67430;BME280;54298;52.076;5.264;2023-01-24T05:27:36;103802.0;;;3.99;72.61
67430;BME280;54298;52.076;5.264;2023-01-24T05:30:48;103808.0;;;3.88;73.06
67430;BME280;54298;52.076;5.264;2023-01-24T05:32:26;103809.99999999999;;;3.91;73.3
67430;BME280;54298;52.076;5.264;2023-01-24T05:34:05;103808.0;;;3.92;72.97
67430;BME280;54298;52.076;5.264;2023-01-24T05:37:19;103808.0;;;3.84;73.06
67430;BME280;54298;52.076;5.264;2023-01-24T05:38:55;103808.99999999999;;;3.92;72.98
67430;BME280;54298;52.076;5.264;2023-01-24T05:40:31;103808.99999999999;;;3.95;72.69
67430;BME280;54298;52.076;5.264;2023-01-24T05:42:07;103811.99999999999;;;3.91;72.92
67430;BME280;54298;52.076;5.264;2023-01-24T05:45:22;103816.00000000001;;;3.93;73.09
67430;BME280;54298;52.076;5.264;2023-01-24T05:46:58;103813.00000000001;;;3.93;72.69
67430;BME280;54298;52.076;5.264;2023-01-24T05:48:34;103813.00000000001;;;3.81;73.42
67430;BME280;54298;52.076;5.264;2023-01-24T05:51:47;103815.00000000001;;;3.84;73.24
67430;BME280;54298;52.076;5.264;2023-01-24T05:53:24;103817.0;;;3.89;73.28
67430;BME280;54298;52.076;5.264;2023-01-24T05:55:01;103821.0;;;3.75;73.34
67430;BME280;54298;52.076;5.264;2023-01-24T05:58:13;103817.0;;;3.84;73.28
67430;BME280;54298;52.076;5.264;2023-01-24T05:59:49;103817.0;;;3.91;73.14
67430;BME280;54298;52.076;5.264;2023-01-24T06:01:25;103815.00000000001;;;3.95;73.0
67430;BME280;54298;52.076;5.264;2023-01-24T06:03:03;103819.0;;;3.76;73.83
67430;BME280;54298;52.076;5.264;2023-01-24T06:06:18;103817.0;;;3.82;73.37
67430;BME280;54298;52.076;5.264;2023-01-24T06:07:56;103821.0;;;3.91;73.19
67430;BME280;54298;52.076;5.264;2023-01-24T06:09:32;103820.0;;;3.81;73.27
67430;BME280;54298;52.076;5.264;2023-01-24T06:12:47;103819.0;;;3.92;73.06
67430;BME280;54298;52.076;5.264;2023-01-24T06:14:24;103816.00000000001;;;3.87;73.49
67430;BME280;54298;52.076;5.264;2023-01-24T06:16:01;103819.0;;;3.77;74.24
67430;BME280;54298;52.076;5.264;2023-01-24T06:19:14;103816.00000000001;;;3.86;73.87
67430;BME280;54298;52.076;5.264;2023-01-24T06:20:52;103816.00000000001;;;3.87;73.42
67430;BME280;54298;52.076;5.264;2023-01-24T06:22:31;103819.0;;;3.79;73.61
67430;BME280;54298;52.076;5.264;2023-01-24T06:24:17;103817.0;;;3.87;73.36
67430;BME280;54298;52.076;5.264;2023-01-24T06:27:32;103823.0;;;3.84;73.87
67430;BME280;54298;52.076;5.264;2023-01-24T06:29:09;103827.0;;;3.8;73.64
67430;BME280;54298;52.076;5.264;2023-01-24T06:30:52;103820.0;;;3.77;73.97
67430;BME280;54298;52.076;5.264;2023-01-24T06:32:36;103823.0;;;3.65;73.83
67430;BME280;54298;52.076;5.264;2023-01-24T06:34:36;103826.0;;;3.56;74.28
67430;BME280;54298;52.076;5.264;2023-01-24T06:38:22;103827.0;;;3.73;73.84
67430;BME280;54298;52.076;5.264;2023-01-24T06:39:59;103826.0;;;3.88;73.66
67430;BME280;54298;52.076;5.264;2023-01-24T06:41:36;103828.0;;;3.75;74.14
67430;BME280;54298;52.076;5.264;2023-01-24T06:43:14;103836.99999999999;;;3.77;74.44
67430;BME280;54298;52.076;5.264;2023-01-24T06:46:26;103832.0;;;3.65;74.67
67430;BME280;54298;52.076;5.264;2023-01-24T06:48:04;103836.99999999999;;;3.59;74.66
67430;BME280;54298;52.076;5.264;2023-01-24T06:49:40;103828.0;;;3.73;74.27
67430;BME280;54298;52.076;5.264;2023-01-24T06:51:17;103834.99999999999;;;3.75;74.02
67430;BME280;54298;52.076;5.264;2023-01-24T06:54:29;103836.99999999999;;;3.82;74.0
67430;BME280;54298;52.076;5.264;2023-01-24T06:56:07;103841.00000000001;;;3.89;73.66
67430;BME280;54298;52.076;5.264;2023-01-24T06:57:46;103834.99999999999;;;3.88;73.77
67430;BME280;54298;52.076;5.264;2023-01-24T07:00:59;103847.0;;;3.88;73.49
67430;BME280;54298;52.076;5.264;2023-01-24T07:02:35;103844.0;;;3.8;73.78
67430;BME280;54298;52.076;5.264;2023-01-24T07:04:12;103848.0;;;3.86;73.92
67430;BME280;54298;52.076;5.264;2023-01-24T07:05:49;103851.0;;;3.7;74.52
67430;BME280;54298;52.076;5.264;2023-01-24T07:09:01;103845.0;;;3.74;74.17
67430;BME280;54298;52.076;5.264;2023-01-24T07:10:39;103847.0;;;3.74;74.61
67430;BME280;54298;52.076;5.264;2023-01-24T07:12:15;103847.0;;;3.68;74.45
67430;BME280;54298;52.076;5.264;2023-01-24T07:15:27;103845.0;;;3.77;74.02
67430;BME280;54298;52.076;5.264;2023-01-24T07:17:04;103845.0;;;3.79;73.52
67430;BME280;54298;52.076;5.264;2023-01-24T07:18:40;103848.0;;;3.8;73.91
67430;BME280;54298;52.076;5.264;2023-01-24T07:21:57;103848.0;;;3.76;73.92
67430;BME280;54298;52.076;5.264;2023-01-24T07:23:35;103856.0;;;3.59;74.44
67430;BME280;54298;52.076;5.264;2023-01-24T07:25:17;103857.0;;;3.71;73.98
67430;BME280;54298;52.076;5.264;2023-01-24T07:26:55;103858.0;;;3.51;74.3
67430;BME280;54298;52.076;5.264;2023-01-24T07:30:09;103856.0;;;3.67;74.02
67430;BME280;54298;52.076;5.264;2023-01-24T07:31:47;103856.0;;;3.59;74.39
67430;BME280;54298;52.076;5.264;2023-01-24T07:33:24;103858.0;;;3.68;74.48
67430;BME280;54298;52.076;5.264;2023-01-24T07:36:36;103864.00000000001;;;3.65;74.56
67430;BME280;54298;52.076;5.264;2023-01-24T07:38:13;103865.00000000001;;;3.75;74.36
67430;BME280;54298;52.076;5.264;2023-01-24T07:39:49;103868.0;;;3.76;74.16
67430;BME280;54298;52.076;5.264;2023-01-24T07:41:25;103867.0;;;3.76;73.83
67430;BME280;54298;52.076;5.264;2023-01-24T07:44:39;103867.0;;;3.55;74.23
67430;BME280;54298;52.076;5.264;2023-01-24T07:46:15;103870.0;;;3.7;73.98
67430;BME280;54298;52.076;5.264;2023-01-24T07:47:54;103873.0;;;3.67;74.12
67430;BME280;54298;52.076;5.264;2023-01-24T07:51:07;103877.0;;;3.71;74.05
67430;BME280;54298;52.076;5.264;2023-01-24T07:52:43;103872.0;;;3.77;73.92
67430;BME280;54298;52.076;5.264;2023-01-24T07:54:20;103874.0;;;3.75;74.13
67430;BME280;54298;52.076;5.264;2023-01-24T07:57:35;103875.0;;;3.71;74.23
67430;BME280;54298;52.076;5.264;2023-01-24T07:59:11;103875.0;;;3.78;74.11
67430;BME280;54298;52.076;5.264;2023-01-24T08:00:47;103881.0;;;3.78;74.03
67430;BME280;54298;52.076;5.264;2023-01-24T08:02:23;103878.0;;;3.83;74.19
67430;BME280;54298;52.076;5.264;2023-01-24T08:05:36;103882.0;;;3.75;74.37
67430;BME280;54298;52.076;5.264;2023-01-24T08:07:20;103882.0;;;3.78;74.0
67430;BME280;54298;52.076;5.264;2023-01-24T08:08:56;103879.0;;;3.79;74.19
67430;BME280;54298;52.076;5.264;2023-01-24T08:12:08;103881.0;;;3.76;74.22
67430;BME280;54298;52.076;5.264;2023-01-24T08:13:44;103883.0;;;3.72;74.41
67430;BME280;54298;52.076;5.264;2023-01-24T08:15:22;103888.00000000001;;;3.69;74.94
67430;BME280;54298;52.076;5.264;2023-01-24T08:16:58;103883.99999999999;;;3.73;74.55
67430;BME280;54298;52.076;5.264;2023-01-24T08:20:13;103889.00000000001;;;3.71;74.97
67430;BME280;54298;52.076;5.264;2023-01-24T08:21:50;103891.00000000001;;;3.73;74.74
67430;BME280;54298;52.076;5.264;2023-01-24T08:23:26;103891.00000000001;;;3.67;74.7
67430;BME280;54298;52.076;5.264;2023-01-24T08:26:40;103892.0;;;3.81;74.33
67430;BME280;54298;52.076;5.264;2023-01-24T08:28:16;103892.0;;;3.88;74.41
67430;BME280;54298;52.076;5.264;2023-01-24T08:29:52;103893.0;;;3.83;74.34
67430;BME280;54298;52.076;5.264;2023-01-24T08:33:06;103900.0;;;3.63;74.64
67430;BME280;54298;52.076;5.264;2023-01-24T08:34:42;103890.00000000001;;;3.78;74.55
67430;BME280;54298;52.076;5.264;2023-01-24T08:36:19;103894.0;;;3.86;74.41
67430;BME280;54298;52.076;5.264;2023-01-24T08:37:55;103893.0;;;3.82;74.39
67430;BME280;54298;52.076;5.264;2023-01-24T08:41:07;103899.0;;;3.85;74.11
67430;BME280;54298;52.076;5.264;2023-01-24T08:42:43;103899.0;;;3.83;74.55
67430;BME280;54298;52.076;5.264;2023-01-24T08:44:20;103904.0;;;3.8;74.58
67430;BME280;54298;52.076;5.264;2023-01-24T08:47:33;103909.99999999999;;;3.77;74.64
67430;BME280;54298;52.076;5.264;2023-01-24T08:49:09;103916.00000000001;;;3.83;74.34
67430;BME280;54298;52.076;5.264;2023-01-24T08:50:45;103915.00000000001;;;3.79;74.14
67430;BME280;54298;52.076;5.264;2023-01-24T08:53:58;103917.0;;;3.64;74.8
67430;BME280;54298;52.076;5.264;2023-01-24T08:55:35;103915.00000000001;;;3.76;74.23
67430;BME280;54298;52.076;5.264;2023-01-24T08:57:11;103919.0;;;3.77;74.47
67430;BME280;54298;52.076;5.264;2023-01-24T08:58:47;103921.0;;;3.79;74.25
67430;BME280;54298;52.076;5.264;2023-01-24T09:01:59;103921.0;;;3.71;74.67
67430;BME280;54298;52.076;5.264;2023-01-24T09:03:36;103918.0;;;3.8;74.44
67430;BME280;54298;52.076;5.264;2023-01-24T09:05:13;103917.0;;;3.82;74.02
67430;BME280;54298;52.076;5.264;2023-01-24T09:08:28;103923.0;;;3.79;74.02
67430;BME280;54298;52.076;5.264;2023-01-24T09:10:06;103919.0;;;3.85;74.19
67430;BME280;54298;52.076;5.264;2023-01-24T09:11:42;103921.0;;;3.87;74.08
67430;BME280;54298;52.076;5.264;2023-01-24T09:14:55;103924.0;;;3.85;74.17
67430;BME280;54298;52.076;5.264;2023-01-24T09:16:32;103924.0;;;3.78;74.31
67430;BME280;54298;52.076;5.264;2023-01-24T09:18:08;103924.0;;;3.83;74.08
67430;BME280;54298;52.076;5.264;2023-01-24T09:19:44;103924.0;;;3.8;74.25
67430;BME280;54298;52.076;5.264;2023-01-24T09:22:57;103929.0;;;3.86;74.33
67430;BME280;54298;52.076;5.264;2023-01-24T09:24:33;103938.00000000001;;;3.79;74.22
67430;BME280;54298;52.076;5.264;2023-01-24T09:26:10;103942.0;;;3.87;74.13
67430;BME280;54298;52.076;5.264;2023-01-24T09:29:29;103942.0;;;3.84;74.5
67430;BME280;54298;52.076;5.264;2023-01-24T09:31:07;103934.99999999999;;;3.8;74.44
67430;BME280;54298;52.076;5.264;2023-01-24T09:32:44;103934.99999999999;;;3.9;74.33
67430;BME280;54298;52.076;5.264;2023-01-24T09:34:20;103940.00000000001;;;3.89;74.34
67430;BME280;54298;52.076;5.264;2023-01-24T09:37:35;103940.00000000001;;;3.89;73.84
67430;BME280;54298;52.076;5.264;2023-01-24T09:39:11;103941.00000000001;;;3.8;74.37
67430;BME280;54298;52.076;5.264;2023-01-24T09:40:52;103945.0;;;3.8;74.22
67430;BME280;54298;52.076;5.264;2023-01-24T09:44:18;103942.0;;;3.84;74.0
67430;BME280;54298;52.076;5.264;2023-01-24T09:46:04;103948.0;;;3.85;73.72
67430;BME280;54298;52.076;5.264;2023-01-24T09:47:47;103951.0;;;3.81;73.97
67430;BME280;54298;52.076;5.264;2023-01-24T09:49:34;103952.0;;;3.85;74.08
67430;BME280;54298;52.076;5.264;2023-01-24T09:51:19;103947.0;;;3.94;73.97
67430;BME280;54298;52.076;5.264;2023-01-24T09:54:39;103944.0;;;3.91;74.02
67430;BME280;54298;52.076;5.264;2023-01-24T09:56:29;103943.0;;;3.83;74.08
67430;BME280;54298;52.076;5.264;2023-01-24T09:58:22;103942.0;;;3.9;73.89
67430;BME280;54298;52.076;5.264;2023-01-24T10:00:09;103948.0;;;3.99;73.8
67430;BME280;54298;52.076;5.264;2023-01-24T10:01:52;103955.0;;;3.91;74.2
67430;BME280;54298;52.076;5.264;2023-01-24T10:05:12;103955.0;;;3.93;74.39
67430;BME280;54298;52.076;5.264;2023-01-24T10:07:03;103951.0;;;3.93;73.77
67430;BME280;54298;52.076;5.264;2023-01-24T10:08:54;103957.0;;;3.9;73.8
67430;BME280;54298;52.076;5.264;2023-01-24T10:10:44;103952.0;;;3.8;74.28
67430;BME280;54298;52.076;5.264;2023-01-24T10:12:29;103956.0;;;3.97;73.92
67430;BME280;54298;52.076;5.264;2023-01-24T10:14:25;103945.0;;;3.96;73.8
67430;BME280;54298;52.076;5.264;2023-01-24T10:20:28;103951.0;;;3.98;74.13
67430;BME280;54298;52.076;5.264;2023-01-24T10:22:14;103948.0;;;4.03;73.84
67430;BME280;54298;52.076;5.264;2023-01-24T10:24:03;103949.0;;;3.95;74.28
67430;BME280;54298;52.076;5.264;2023-01-24T10:25:49;103950.0;;;3.94;74.14
67430;BME280;54298;52.076;5.264;2023-01-24T10:27:31;103948.0;;;3.9;74.52
67430;BME280;54298;52.076;5.264;2023-01-24T10:29:13;103948.0;;;3.83;74.62
67430;BME280;54298;52.076;5.264;2023-01-24T10:30:56;103961.99999999999;;;3.98;74.06
67430;BME280;54298;52.076;5.264;2023-01-24T10:34:28;103953.0;;;3.98;74.09
67430;BME280;54298;52.076;5.264;2023-01-24T10:36:11;103950.0;;;3.91;73.92
67430;BME280;54298;52.076;5.264;2023-01-24T10:37:53;103952.0;;;3.92;73.87
67430;BME280;54298;52.076;5.264;2023-01-24T10:39:33;103950.0;;;3.89;74.16
67430;BME280;54298;52.076;5.264;2023-01-24T10:42:53;103947.0;;;3.83;74.55
67430;BME280;54298;52.076;5.264;2023-01-24T10:44:35;103944.0;;;3.88;74.52
67430;BME280;54298;52.076;5.264;2023-01-24T10:46:25;103943.0;;;3.94;74.19
67430;BME280;54298;52.076;5.264;2023-01-24T10:48:11;103944.0;;;3.92;74.03
67430;BME280;54298;52.076;5.264;2023-01-24T10:49:57;103945.0;;;3.91;73.98
67430;BME280;54298;52.076;5.264;2023-01-24T10:53:12;103942.0;;;3.9;73.89
67430;BME280;54298;52.076;5.264;2023-01-24T10:54:59;103936.99999999999;;;3.95;73.77
67430;BME280;54298;52.076;5.264;2023-01-24T10:56:38;103933.0;;;3.9;74.08
67430;BME280;54298;52.076;5.264;2023-01-24T10:58:21;103928.0;;;3.93;74.0
67430;BME280;54298;52.076;5.264;2023-01-24T11:01:59;103924.0;;;3.92;74.05
67430;BME280;54298;52.076;5.264;2023-01-24T11:03:39;103922.0;;;3.88;73.94
67430;BME280;54298;52.076;5.264;2023-01-24T11:05:16;103920.0;;;3.87;73.91
67430;BME280;54298;52.076;5.264;2023-01-24T11:06:54;103922.0;;;3.95;73.89
67430;BME280;54298;52.076;5.264;2023-01-24T11:08:33;103919.0;;;3.98;73.66
67430;BME280;54298;52.076;5.264;2023-01-24T11:11:58;103921.0;;;3.98;73.56
67430;BME280;54298;52.076;5.264;2023-01-24T11:13:36;103922.0;;;4.07;73.24
67430;BME280;54298;52.076;5.264;2023-01-24T11:15:16;103921.0;;;4.12;73.61
67430;BME280;54298;52.076;5.264;2023-01-24T11:16:58;103916.00000000001;;;4.17;73.58
67430;BME280;54298;52.076;5.264;2023-01-24T11:20:28;103914.00000000001;;;4.04;73.94
67430;BME280;54298;52.076;5.264;2023-01-24T11:22:20;103917.0;;;4.1;73.61
67430;BME280;54298;52.076;5.264;2023-01-24T11:24:00;103916.00000000001;;;4.07;73.33